Time;durP1;ratioP1;P1;durP2;ratioP2;P2;SDS_P1;SDS_P2;PMS_P1;PMS_P2;Temp;Humidity;BMP_temperature;BMP_pressure;BME280_temperature;BME280_humidity;BME280_pressure;Samples;Min_cycle;Max_cycle;Signal;HPM_P1;HPM_P2
2023/03/29 00:01:31;;;;;;;0.90;0.70;;;18.30;50.60;;;;;;5108943;27;20700;-48
2023/03/29 00:04:05;;;;;;;1.23;0.80;;;18.30;50.60;;;;;;5106813;27;20624;-48
2023/03/29 00:06:37;;;;;;;1.50;0.87;;;18.30;50.80;;;;;;5116216;27;20200;-48
2023/03/29 00:09:09;;;;;;;1.83;0.77;;;18.30;50.80;;;;;;5085853;28;20197;-48
2023/03/29 00:11:38;;;;;;;1.17;0.70;;;18.30;50.80;;;;;;5103221;27;20222;-48
2023/03/29 00:14:11;;;;;;;1.43;0.80;;;18.20;51.00;;;;;;5105446;27;20200;-48
2023/03/29 00:16:54;;;;;;;1.43;0.90;;;18.20;51.10;;;;;;5105847;27;20712;-48
2023/03/29 00:19:21;;;;;;;1.50;1.07;;;18.20;51.10;;;;;;5072548;28;20301;-48
2023/03/29 00:21:52;;;;;;;1.40;1.03;;;18.10;51.10;;;;;;5114474;27;20208;-48
2023/03/29 00:24:22;;;;;;;0.90;0.80;;;18.10;51.30;;;;;;5082156;27;20200;-48
2023/03/29 00:26:54;;;;;;;1.10;0.93;;;18.10;51.20;;;;;;5113445;27;20261;-48
2023/03/29 00:29:25;;;;;;;1.63;0.87;;;18.10;51.30;;;;;;5114060;27;20610;-48
2023/03/29 00:31:54;;;;;;;1.47;1.07;;;18.10;51.40;;;;;;5105588;27;20212;-49
2023/03/29 00:34:36;;;;;;;1.30;1.17;;;18.10;51.40;;;;;;5109105;27;20251;-49
2023/03/29 00:37:07;;;;;;;0.77;0.70;;;18.00;51.40;;;;;;5088519;28;20199;-48
2023/03/29 00:39:49;;;;;;;0.80;0.60;;;18.00;51.50;;;;;;5094601;27;20613;-48
2023/03/29 00:42:19;;;;;;;0.73;0.60;;;17.90;51.60;;;;;;5088577;28;20668;-48
2023/03/29 00:45:28;;;;;;;1.10;0.70;;;17.90;51.70;;;;;;5084817;27;20191;-48
2023/03/29 00:48:01;;;;;;;1.20;0.80;;;17.90;51.60;;;;;;5094759;27;20261;-48
2023/03/29 00:50:52;;;;;;;1.20;1.00;;;17.80;51.70;;;;;;5108063;28;20241;-48
2023/03/29 00:54:01;;;;;;;0.90;0.70;;;17.90;51.80;;;;;;5105070;27;20673;-48
2023/03/29 00:56:38;;;;;;;1.00;0.70;;;17.80;51.80;;;;;;5059048;28;20200;-48
2023/03/29 00:59:21;;;;;;;1.10;0.70;;;17.80;51.90;;;;;;5104745;27;20219;-48
2023/03/29 01:02:02;;;;;;;1.47;1.10;;;17.80;52.00;;;;;;5092942;27;20266;-48
2023/03/29 01:05:04;;;;;;;0.83;0.83;;;17.80;52.10;;;;;;5114752;27;20207;-48
2023/03/29 01:08:02;;;;;;;1.20;0.80;;;17.70;52.10;;;;;;5085753;28;20280;-48
2023/03/29 01:10:50;;;;;;;0.80;0.80;;;17.70;52.10;;;;;;5102293;27;20197;-49
2023/03/29 01:13:32;;;;;;;0.90;0.80;;;17.70;52.30;;;;;;5101019;28;20209;-48
2023/03/29 01:16:11;;;;;;;0.73;0.70;;;17.70;52.40;;;;;;5097001;28;20236;-48
2023/03/29 01:18:47;;;;;;;1.00;0.90;;;17.60;52.30;;;;;;5090249;28;20188;-49
2023/03/29 01:21:35;;;;;;;1.07;0.93;;;17.60;52.40;;;;;;5111187;27;20509;-49
2023/03/29 01:24:25;;;;;;;1.03;0.70;;;17.60;52.50;;;;;;5092326;27;20626;-48
2023/03/29 01:27:21;;;;;;;1.20;0.90;;;17.60;52.40;;;;;;5101511;28;20192;-48
2023/03/29 01:30:09;;;;;;;0.80;0.70;;;17.60;52.30;;;;;;5090117;27;20200;-49
2023/03/29 01:32:58;;;;;;;1.57;0.80;;;17.50;52.50;;;;;;5126008;27;20281;-49
2023/03/29 01:35:58;;;;;;;1.27;0.83;;;17.50;52.60;;;;;;5103090;27;20235;-49
2023/03/29 01:38:57;;;;;;;0.90;0.90;;;17.50;52.50;;;;;;5104524;28;20254;-49
2023/03/29 01:42:06;;;;;;;1.50;0.80;;;17.50;52.50;;;;;;5111275;28;20192;-49
2023/03/29 01:45:06;;;;;;;1.30;0.80;;;17.50;52.60;;;;;;5112695;28;20201;-49
2023/03/29 01:47:54;;;;;;;1.10;0.87;;;17.40;52.70;;;;;;5114847;28;20208;-49
2023/03/29 01:50:46;;;;;;;1.80;0.80;;;17.40;52.70;;;;;;5116393;28;20211;-49
2023/03/29 01:54:08;;;;;;;1.03;0.83;;;17.40;52.80;;;;;;5120703;28;20213;-49
2023/03/29 01:56:42;;;;;;;0.97;0.63;;;17.40;52.70;;;;;;5022035;28;20230;-48
2023/03/29 01:59:23;;;;;;;1.20;1.10;;;17.40;52.80;;;;;;5005644;28;20301;-47
2023/03/29 02:02:03;;;;;;;0.93;0.80;;;17.40;52.90;;;;;;5078745;28;20220;-49
2023/03/29 02:04:39;;;;;;;1.20;0.77;;;17.30;52.90;;;;;;5092663;28;20199;-49
2023/03/29 02:07:09;;;;;;;0.60;0.60;;;17.30;53.00;;;;;;5108560;28;20196;-48
2023/03/29 02:09:42;;;;;;;0.90;0.80;;;17.30;53.00;;;;;;5074759;28;20208;-49
2023/03/29 02:12:16;;;;;;;0.73;0.73;;;17.30;53.00;;;;;;5079296;28;20196;-48
2023/03/29 02:14:49;;;;;;;0.70;0.60;;;17.30;53.00;;;;;;5101081;28;20219;-48
2023/03/29 02:17:26;;;;;;;0.87;0.80;;;17.30;53.00;;;;;;5107795;28;20269;-49
2023/03/29 02:20:21;;;;;;;0.87;0.70;;;17.30;53.10;;;;;;5078277;28;20200;-48
2023/03/29 02:23:26;;;;;;;0.83;0.70;;;17.20;53.10;;;;;;5099751;28;20209;-48
2023/03/29 02:25:57;;;;;;;1.10;0.80;;;17.30;53.10;;;;;;5106893;28;20200;-48
2023/03/29 02:28:27;;;;;;;2.60;0.70;;;17.30;53.20;;;;;;5113946;28;20618;-48
2023/03/29 02:31:14;;;;;;;0.90;0.67;;;17.30;53.20;;;;;;5103312;28;20631;-49
2023/03/29 02:34:09;;;;;;;0.83;0.80;;;17.20;53.10;;;;;;5102782;28;20204;-48
2023/03/29 02:36:51;;;;;;;0.67;0.67;;;17.20;53.20;;;;;;5107939;28;20212;-48
2023/03/29 02:39:32;;;;;;;1.17;0.80;;;17.30;53.30;;;;;;5079022;27;20242;-48
2023/03/29 02:42:09;;;;;;;1.07;0.70;;;17.20;53.30;;;;;;5105780;27;20703;-49
2023/03/29 02:44:40;;;;;;;0.83;0.77;;;17.20;53.30;;;;;;5100381;27;20294;-49
2023/03/29 02:47:28;;;;;;;1.30;0.90;;;17.20;53.30;;;;;;5086616;28;20542;-49
2023/03/29 02:50:00;;;;;;;1.10;1.00;;;17.20;53.30;;;;;;5108514;27;20204;-49
2023/03/29 02:52:38;;;;;;;0.70;0.70;;;17.20;53.40;;;;;;5121849;27;20256;-48
2023/03/29 02:55:20;;;;;;;0.70;0.70;;;17.20;53.40;;;;;;5106229;27;20220;-48
2023/03/29 02:57:52;;;;;;;1.27;1.17;;;17.20;53.50;;;;;;5108333;27;20262;-48
2023/03/29 03:00:22;;;;;;;1.10;0.73;;;17.10;53.50;;;;;;5083604;27;20212;-49
2023/03/29 03:02:53;;;;;;;0.80;0.80;;;17.20;53.50;;;;;;5111578;27;20324;-49
2023/03/29 03:05:31;;;;;;;0.93;0.70;;;17.10;53.50;;;;;;5122059;27;20199;-49
2023/03/29 03:08:00;;;;;;;1.97;0.90;;;17.10;53.50;;;;;;5114251;27;20189;-49
2023/03/29 03:10:29;;;;;;;0.80;0.80;;;17.10;53.50;;;;;;5116641;27;20196;-49
2023/03/29 03:12:58;;;;;;;1.53;0.60;;;17.10;53.60;;;;;;5109107;27;20199;-48
2023/03/29 03:15:27;;;;;;;1.03;0.70;;;17.10;53.60;;;;;;5115802;27;20224;-48
2023/03/29 03:18:11;;;;;;;1.27;0.97;;;17.10;53.60;;;;;;5092180;28;20196;-49
2023/03/29 03:20:45;;;;;;;0.77;0.70;;;17.10;53.60;;;;;;5108410;27;20614;-49
2023/03/29 03:23:16;;;;;;;0.63;0.60;;;17.10;53.70;;;;;;5092092;27;20200;-49
2023/03/29 03:25:48;;;;;;;0.80;0.80;;;17.00;53.70;;;;;;5114716;27;20685;-49
2023/03/29 03:28:20;;;;;;;1.00;0.80;;;17.10;53.70;;;;;;5107592;28;20631;-49
2023/03/29 03:30:52;;;;;;;0.83;0.57;;;17.10;53.70;;;;;;5093874;28;20285;-48
2023/03/29 03:33:25;;;;;;;1.00;0.80;;;17.00;53.70;;;;;;5108611;27;20196;-48
2023/03/29 03:36:03;;;;;;;0.90;0.70;;;17.00;53.70;;;;;;5116212;27;20223;-48
2023/03/29 03:38:35;;;;;;;0.83;0.70;;;17.00;53.70;;;;;;5117343;27;20234;-49
2023/03/29 03:41:07;;;;;;;0.73;0.67;;;17.00;53.70;;;;;;5104107;27;20284;-49
2023/03/29 03:43:41;;;;;;;1.20;0.80;;;17.00;53.80;;;;;;5103035;27;20209;-49
2023/03/29 03:46:23;;;;;;;1.00;0.90;;;17.00;53.80;;;;;;5098554;27;20199;-49
2023/03/29 03:48:53;;;;;;;1.20;0.83;;;17.00;53.80;;;;;;5120813;27;20205;-49
2023/03/29 03:51:24;;;;;;;1.17;0.70;;;17.00;53.80;;;;;;5104316;27;20599;-49
2023/03/29 03:53:56;;;;;;;2.57;0.60;;;17.00;54.00;;;;;;5112483;27;20205;-49
2023/03/29 03:56:28;;;;;;;0.90;0.77;;;17.00;53.90;;;;;;5109245;27;20216;-48
2023/03/29 03:58:59;;;;;;;0.80;0.77;;;17.00;53.90;;;;;;5111826;27;20230;-53
2023/03/29 04:01:30;;;;;;;0.93;0.83;;;17.00;54.00;;;;;;5110594;27;20722;-48
2023/03/29 04:04:00;;;;;;;1.00;0.73;;;17.00;54.00;;;;;;5106018;27;20196;-48
2023/03/29 04:06:31;;;;;;;0.97;0.93;;;17.00;54.00;;;;;;5088802;28;20257;-48
2023/03/29 04:09:05;;;;;;;0.83;0.70;;;17.00;54.00;;;;;;5109501;27;20636;-49
2023/03/29 04:11:34;;;;;;;4.10;0.70;;;17.00;54.00;;;;;;5102200;27;20217;-49
2023/03/29 04:14:05;;;;;;;1.27;0.90;;;17.00;54.00;;;;;;5106037;27;20250;-48
2023/03/29 04:16:41;;;;;;;1.07;0.97;;;17.00;54.10;;;;;;5109377;28;20212;-49
2023/03/29 04:19:16;;;;;;;1.23;0.70;;;17.00;54.10;;;;;;5105799;28;20211;-49
2023/03/29 04:21:48;;;;;;;1.00;0.90;;;17.00;54.10;;;;;;5107928;27;20188;-48
2023/03/29 04:24:19;;;;;;;1.10;0.70;;;17.00;54.10;;;;;;5105353;27;20685;-49
2023/03/29 04:26:48;;;;;;;1.07;0.77;;;16.90;54.00;;;;;;5113084;27;20621;-49
2023/03/29 04:29:19;;;;;;;1.53;0.83;;;17.00;54.10;;;;;;5108645;27;20188;-49
2023/03/29 04:31:50;;;;;;;1.50;0.87;;;16.90;54.00;;;;;;5104104;27;20196;-48
2023/03/29 04:34:22;;;;;;;1.23;0.90;;;17.00;54.10;;;;;;5076656;28;20382;-49
2023/03/29 04:36:50;;;;;;;0.80;0.70;;;17.00;54.10;;;;;;5103484;28;20212;-48
2023/03/29 04:39:20;;;;;;;1.03;0.80;;;16.90;54.00;;;;;;5104790;27;20220;-49
2023/03/29 04:41:48;;;;;;;0.60;0.60;;;17.00;54.10;;;;;;5099406;27;20212;-48
2023/03/29 04:44:21;;;;;;;1.00;0.90;;;17.00;54.10;;;;;;5099140;27;20246;-48
2023/03/29 04:46:51;;;;;;;0.90;0.70;;;16.90;54.10;;;;;;5111875;27;20605;-48
2023/03/29 04:49:21;;;;;;;1.10;0.80;;;16.90;54.00;;;;;;5098705;27;20215;-48
2023/03/29 04:51:53;;;;;;;2.00;0.90;;;16.90;54.00;;;;;;5116356;27;20196;-48
2023/03/29 04:54:25;;;;;;;0.93;0.70;;;16.90;53.90;;;;;;5105504;28;20249;-49
2023/03/29 04:56:55;;;;;;;1.00;0.90;;;16.90;53.90;;;;;;5108326;27;20796;-48
2023/03/29 04:59:25;;;;;;;1.07;0.83;;;16.90;53.80;;;;;;5110129;27;20207;-49
2023/03/29 05:02:07;;;;;;;0.80;0.80;;;16.90;53.90;;;;;;5112471;27;20199;-48
2023/03/29 05:04:39;;;;;;;0.93;0.80;;;16.90;53.80;;;;;;5110015;27;20275;-47
2023/03/29 05:07:07;;;;;;;1.33;1.03;;;16.90;53.80;;;;;;5116693;27;20191;-47
2023/03/29 05:09:39;;;;;;;1.17;0.90;;;16.90;53.80;;;;;;5117423;27;20207;-47
2023/03/29 05:12:12;;;;;;;0.90;0.80;;;16.80;53.80;;;;;;5068204;22;20837;-48
2023/03/29 05:14:54;;;;;;;1.40;1.30;;;16.90;53.80;;;;;;5026845;28;20226;-48
2023/03/29 05:17:26;;;;;;;0.90;0.87;;;16.90;53.80;;;;;;5020535;28;20211;-48
2023/03/29 05:19:54;;;;;;;1.43;0.70;;;16.90;53.80;;;;;;5020964;28;20390;-48
2023/03/29 05:22:25;;;;;;;1.37;1.27;;;16.80;53.70;;;;;;5022648;28;20191;-48
2023/03/29 05:24:56;;;;;;;1.00;0.90;;;16.90;53.60;;;;;;5011416;28;20226;-48
2023/03/29 05:27:28;;;;;;;1.20;1.07;;;16.80;54.20;;;;;;5031456;28;20196;-47
2023/03/29 05:29:59;;;;;;;1.00;0.80;;;16.80;53.60;;;;;;5031067;28;20203;-48
2023/03/29 05:32:43;;;;;;;0.73;0.70;;;16.80;53.60;;;;;;5020730;28;20195;-47
2023/03/29 05:35:25;;;;;;;0.87;0.87;;;16.90;53.60;;;;;;5024536;28;20248;-48
2023/03/29 05:37:55;;;;;;;1.13;1.00;;;16.80;53.60;;;;;;5026736;28;20787;-49
2023/03/29 05:40:28;;;;;;;1.23;0.80;;;16.80;53.50;;;;;;5016375;28;20194;-48
2023/03/29 05:42:58;;;;;;;3.30;1.50;;;16.80;53.60;;;;;;5024384;28;20187;-49
2023/03/29 05:45:36;;;;;;;1.23;1.13;;;16.80;53.60;;;;;;5025393;28;20206;-48
2023/03/29 05:48:07;;;;;;;1.30;0.87;;;16.80;53.60;;;;;;5021457;28;20385;-48
2023/03/29 05:50:37;;;;;;;2.60;1.10;;;16.80;53.60;;;;;;5021688;28;20220;-48
2023/03/29 05:53:08;;;;;;;1.77;1.10;;;16.80;53.60;;;;;;5026268;28;20568;-48
2023/03/29 05:55:40;;;;;;;1.57;1.10;;;16.80;53.60;;;;;;5026202;28;20221;-49
2023/03/29 05:58:07;;;;;;;3.17;0.90;;;16.80;53.60;;;;;;5000366;28;20546;-49
2023/03/29 06:00:37;;;;;;;1.13;0.93;;;16.80;53.60;;;;;;5023034;28;20281;-48
2023/03/29 06:03:17;;;;;;;0.90;0.90;;;16.80;53.60;;;;;;5024564;28;20522;-49
2023/03/29 06:06:01;;;;;;;1.37;1.07;;;16.80;53.60;;;;;;5022763;28;20199;-48
2023/03/29 06:08:44;;;;;;;2.23;1.33;;;16.80;53.60;;;;;;5025623;28;20289;-48
2023/03/29 06:11:16;;;;;;;1.20;1.10;;;16.80;53.50;;;;;;5016034;28;20665;-49
2023/03/29 06:13:52;;;;;;;1.40;1.30;;;16.80;53.60;;;;;;5018244;28;20206;-48
2023/03/29 06:16:22;;;;;;;1.10;1.00;;;16.80;53.60;;;;;;5027773;28;20219;-48
2023/03/29 06:18:54;;;;;;;1.40;1.10;;;16.80;53.60;;;;;;5029876;28;20197;-49
2023/03/29 06:21:25;;;;;;;1.63;1.03;;;16.80;53.60;;;;;;5029926;28;20620;-49
2023/03/29 06:23:53;;;;;;;1.00;0.90;;;16.80;53.60;;;;;;5026347;28;20280;-49
2023/03/29 06:26:26;;;;;;;2.03;0.90;;;16.80;53.60;;;;;;5026822;28;20218;-49
2023/03/29 06:28:57;;;;;;;2.13;1.00;;;16.80;53.60;;;;;;5029232;28;20202;-48
2023/03/29 06:31:27;;;;;;;1.10;0.87;;;16.80;53.60;;;;;;5027443;28;20210;-48
2023/03/29 06:33:58;;;;;;;1.33;1.10;;;16.80;53.60;;;;;;5027178;28;20215;-49
2023/03/29 06:36:28;;;;;;;2.83;1.53;;;16.80;53.60;;;;;;5022499;28;20238;-48
2023/03/29 06:39:04;;;;;;;2.43;1.30;;;16.80;54.10;;;;;;5027186;28;20353;-48
2023/03/29 06:41:43;;;;;;;1.33;1.10;;;16.80;54.20;;;;;;5029572;28;20195;-48
2023/03/29 06:44:14;;;;;;;2.00;0.93;;;16.80;54.20;;;;;;5026383;28;20211;-49
2023/03/29 06:46:42;;;;;;;1.87;1.33;;;16.80;54.30;;;;;;5026837;28;20328;-48
2023/03/29 06:49:15;;;;;;;1.33;1.00;;;16.80;54.40;;;;;;5025479;28;20600;-48
2023/03/29 06:51:45;;;;;;;2.53;1.33;;;16.80;54.50;;;;;;5028029;28;20195;-48
2023/03/29 06:54:18;;;;;;;1.50;1.10;;;16.80;54.50;;;;;;5025801;28;20199;-48
2023/03/29 06:56:48;;;;;;;1.83;1.20;;;16.80;54.50;;;;;;5029603;28;20207;-48
2023/03/29 06:59:22;;;;;;;1.87;0.97;;;16.80;54.50;;;;;;5026406;28;20211;-48
2023/03/29 07:01:56;;;;;;;15.20;5.17;;;16.80;54.60;;;;;;5015015;28;20191;-47
2023/03/29 07:04:28;;;;;;;57.83;14.67;;;16.80;54.50;;;;;;5022087;28;20183;-47
2023/03/29 07:07:02;;;;;;;39.17;10.57;;;16.80;56.50;;;;;;5028666;28;20202;-47
2023/03/29 07:09:34;;;;;;;43.73;10.07;;;16.90;56.20;;;;;;5028916;28;20217;-47
2023/03/29 07:12:03;;;;;;;38.70;10.50;;;17.00;56.10;;;;;;5022641;28;20230;-47
2023/03/29 07:14:33;;;;;;;43.17;11.43;;;17.10;56.10;;;;;;5037250;28;20217;-46
2023/03/29 07:17:05;;;;;;;35.30;11.00;;;17.20;56.20;;;;;;5048438;28;20230;-47
2023/03/29 07:19:38;;;;;;;40.67;11.77;;;17.30;56.10;;;;;;5048869;28;20206;-47
2023/03/29 07:22:09;;;;;;;38.43;10.60;;;17.30;55.80;;;;;;5039403;28;20198;-47
2023/03/29 07:24:40;;;;;;;38.40;10.93;;;17.40;55.60;;;;;;5053455;28;20442;-47
2023/03/29 07:27:11;;;;;;;35.17;11.00;;;17.50;55.50;;;;;;5048455;28;20788;-48
2023/03/29 07:29:42;;;;;;;32.37;10.90;;;17.50;55.40;;;;;;5047092;28;20612;-47
2023/03/29 07:32:12;;;;;;;34.77;10.27;;;17.60;55.10;;;;;;5044547;28;20195;-47
2023/03/29 07:34:41;;;;;;;32.63;10.27;;;17.70;55.30;;;;;;5044276;28;20198;-47
2023/03/29 07:37:13;;;;;;;29.00;10.70;;;17.70;55.00;;;;;;5048051;28;20836;-47
2023/03/29 07:39:50;;;;;;;36.17;11.23;;;17.80;54.70;;;;;;5048522;28;20296;-47
2023/03/29 07:42:19;;;;;;;32.37;10.60;;;17.90;54.50;;;;;;5026780;28;20216;-47
2023/03/29 07:44:50;;;;;;;25.67;10.10;;;17.90;54.30;;;;;;5052260;28;20608;-47
2023/03/29 07:47:22;;;;;;;25.23;9.50;;;18.00;54.40;;;;;;5048568;28;20206;-47
2023/03/29 07:49:51;;;;;;;31.17;9.77;;;18.00;53.90;;;;;;5032603;28;20213;-47
2023/03/29 07:52:22;;;;;;;30.13;10.83;;;18.00;53.90;;;;;;5047119;28;20190;-47
2023/03/29 07:54:54;;;;;;;35.70;9.40;;;18.10;53.90;;;;;;5033514;28;20198;-47
2023/03/29 07:57:24;;;;;;;37.83;9.33;;;18.20;55.10;;;;;;5030777;28;20240;-48
2023/03/29 07:59:53;;;;;;;25.17;8.17;;;18.20;54.20;;;;;;5014283;28;20214;-47
2023/03/29 08:02:23;;;;;;;28.17;8.83;;;18.20;54.30;;;;;;5047664;28;20199;-47
2023/03/29 08:04:52;;;;;;;30.83;9.43;;;18.20;53.90;;;;;;5046257;28;20194;-47
2023/03/29 08:07:22;;;;;;;28.40;9.20;;;18.30;53.80;;;;;;5026637;28;20206;-47
2023/03/29 08:09:55;;;;;;;24.20;9.43;;;18.30;53.40;;;;;;5020469;28;20264;-47
2023/03/29 08:12:25;;;;;;;26.27;8.63;;;18.30;53.30;;;;;;5039016;28;20256;-46
2023/03/29 08:14:54;;;;;;;20.20;7.53;;;18.30;53.30;;;;;;5047535;28;20209;-47
2023/03/29 08:17:26;;;;;;;23.33;7.47;;;18.40;53.40;;;;;;5047233;28;20206;-46
2023/03/29 08:19:57;;;;;;;24.77;7.73;;;18.40;53.50;;;;;;5029371;28;20222;-47
2023/03/29 08:22:36;;;;;;;23.33;7.87;;;18.50;53.10;;;;;;5043321;28;20287;-46
2023/03/29 08:25:06;;;;;;;24.77;8.23;;;18.50;52.90;;;;;;5023531;28;20202;-46
2023/03/29 08:27:36;;;;;;;23.77;7.80;;;18.60;53.00;;;;;;5026542;28;20214;-47
2023/03/29 08:30:06;;;;;;;22.57;7.20;;;18.60;52.80;;;;;;5042315;28;20213;-48
2023/03/29 08:32:39;;;;;;;19.77;6.97;;;18.70;53.10;;;;;;5042504;28;20357;-48
2023/03/29 08:35:08;;;;;;;27.50;7.43;;;18.60;52.90;;;;;;5026970;28;20789;-47
2023/03/29 08:37:39;;;;;;;18.00;7.43;;;18.70;52.60;;;;;;5030900;28;20215;-47
2023/03/29 08:40:06;;;;;;;16.73;6.80;;;18.70;52.60;;;;;;5044797;28;20238;-48
2023/03/29 08:42:57;;;;;;;16.43;6.57;;;18.80;52.60;;;;;;5013764;28;20213;-47
2023/03/29 08:45:47;;;;;;;12.93;5.87;;;18.80;52.30;;;;;;5045199;28;20588;-47
2023/03/29 08:48:41;;;;;;;19.47;6.67;;;18.90;52.60;;;;;;5042684;28;20327;-46
2023/03/29 08:51:35;;;;;;;27.37;9.77;;;18.90;52.40;;;;;;5035350;28;20249;-47
2023/03/29 08:54:29;;;;;;;30.10;10.87;;;18.90;52.60;;;;;;5021580;28;20544;-46
2023/03/29 08:57:08;;;;;;;26.53;8.80;;;18.80;53.00;;;;;;5046078;28;20210;-46
2023/03/29 08:59:50;;;;;;;24.87;8.87;;;18.80;53.40;;;;;;5029161;28;20194;-46
2023/03/29 09:02:33;;;;;;;26.27;8.03;;;18.70;53.70;;;;;;5047916;28;20221;-46
2023/03/29 09:05:12;;;;;;;23.17;7.87;;;18.60;53.80;;;;;;5009153;28;20206;-47
2023/03/29 09:07:43;;;;;;;24.87;7.63;;;18.50;53.90;;;;;;5047188;28;20205;-46
2023/03/29 09:10:20;;;;;;;22.93;7.47;;;18.50;54.00;;;;;;5038446;28;20226;-47
2023/03/29 09:13:13;;;;;;;27.30;8.03;;;18.40;54.10;;;;;;5042510;28;20241;-46
2023/03/29 09:16:04;;;;;;;23.50;7.40;;;18.40;54.30;;;;;;5044380;28;20547;-46
2023/03/29 09:19:15;;;;;;;20.70;6.60;;;18.30;54.30;;;;;;5020684;28;20292;-46
2023/03/29 09:22:30;;;;;;;20.17;6.93;;;18.30;54.50;;;;;;5041250;28;20198;-46
2023/03/29 09:25:51;;;;;;;22.47;6.73;;;18.20;54.50;;;;;;5041396;28;20568;-46
2023/03/29 09:28:31;;;;;;;23.33;6.60;;;18.20;54.60;;;;;;5043138;28;20614;-46
2023/03/29 09:31:20;;;;;;;18.17;6.20;;;18.10;54.80;;;;;;5047365;28;20202;-46
2023/03/29 09:34:18;;;;;;;16.23;5.90;;;18.10;54.90;;;;;;5045130;28;20205;-46
2023/03/29 09:37:24;;;;;;;18.00;6.10;;;18.10;54.90;;;;;;5041566;28;20257;-46
2023/03/29 09:39:56;;;;;;;15.47;5.07;;;18.00;54.90;;;;;;5034421;28;20636;-46
2023/03/29 09:42:29;;;;;;;15.73;5.33;;;18.10;55.10;;;;;;5025415;28;20237;-46
2023/03/29 09:45:08;;;;;;;12.87;5.33;;;18.00;55.10;;;;;;5045772;28;20618;-46
2023/03/29 09:47:57;;;;;;;13.70;5.20;;;18.00;55.00;;;;;;5026520;28;20691;-46
2023/03/29 09:50:41;;;;;;;16.33;5.13;;;18.00;55.10;;;;;;5026179;28;20190;-46
2023/03/29 09:53:18;;;;;;;12.63;4.97;;;17.90;55.10;;;;;;5029691;28;20244;-46
2023/03/29 09:55:49;;;;;;;13.90;5.03;;;17.90;55.10;;;;;;5028902;28;20195;-46
2023/03/29 09:58:29;;;;;;;11.57;4.43;;;17.90;55.10;;;;;;5024235;28;20216;-47
2023/03/29 10:01:11;;;;;;;12.00;4.63;;;17.90;54.90;;;;;;5025124;28;20194;-46
2023/03/29 10:03:53;;;;;;;9.07;3.50;;;17.90;55.10;;;;;;5045808;28;20209;-46
2023/03/29 10:06:25;;;;;;;16.10;4.07;;;17.80;55.10;;;;;;5023289;28;20218;-46
2023/03/29 10:09:03;;;;;;;10.13;3.60;;;17.80;55.20;;;;;;5027718;28;20279;-48
2023/03/29 10:11:37;;;;;;;11.50;4.10;;;17.90;55.30;;;;;;5026688;28;20854;-46
2023/03/29 10:14:21;;;;;;;9.27;4.10;;;17.80;55.30;;;;;;5026238;28;20198;-46
2023/03/29 10:16:57;;;;;;;8.53;3.57;;;17.80;55.30;;;;;;5028181;28;20222;-46
2023/03/29 10:19:34;;;;;;;7.20;3.17;;;17.80;55.30;;;;;;5045407;28;20224;-46
2023/03/29 10:22:06;;;;;;;12.17;3.83;;;17.80;55.30;;;;;;5022704;28;20187;-46
2023/03/29 10:24:37;;;;;;;8.03;3.00;;;17.80;55.40;;;;;;5047558;28;20202;-46
2023/03/29 10:27:09;;;;;;;9.33;3.73;;;17.80;55.50;;;;;;5036783;28;20206;-47
2023/03/29 10:29:53;;;;;;;7.90;3.00;;;17.70;55.40;;;;;;5027221;28;20202;-47
2023/03/29 10:32:32;;;;;;;7.70;3.00;;;17.80;55.40;;;;;;5028074;28;20229;-46
2023/03/29 10:35:36;;;;;;;10.73;2.70;;;17.90;55.40;;;;;;5010844;28;20209;-47
2023/03/29 10:38:15;;;;;;;6.93;2.97;;;17.90;55.20;;;;;;5029751;28;20237;-47
2023/03/29 10:41:10;;;;;;;7.27;3.00;;;18.00;55.10;;;;;;5024397;28;20392;-46
2023/03/29 10:43:49;;;;;;;6.37;2.93;;;18.10;55.00;;;;;;5021431;28;20501;-46
2023/03/29 10:46:45;;;;;;;6.13;3.00;;;18.20;54.70;;;;;;5040935;28;20224;-46
2023/03/29 10:49:19;;;;;;;5.73;2.57;;;18.30;54.80;;;;;;5044094;28;20199;-46
2023/03/29 10:51:49;;;;;;;5.03;2.83;;;18.30;54.30;;;;;;5026810;28;20203;-47
2023/03/29 10:54:30;;;;;;;7.37;2.50;;;18.40;54.40;;;;;;5025265;28;20194;-47
2023/03/29 10:57:04;;;;;;;7.33;2.83;;;18.50;54.60;;;;;;5044505;28;20218;-47
2023/03/29 10:59:52;;;;;;;6.90;2.83;;;18.60;54.70;;;;;;5027207;28;20233;-47
2023/03/29 11:02:46;;;;;;;5.50;2.40;;;18.50;54.20;;;;;;5045731;28;21008;-47
2023/03/29 11:05:39;;;;;;;3.80;2.20;;;18.50;54.60;;;;;;5047607;28;20217;-46
2023/03/29 11:08:32;;;;;;;3.53;1.90;;;18.50;54.60;;;;;;5048245;28;20590;-46
2023/03/29 11:11:26;;;;;;;3.70;2.03;;;18.50;54.60;;;;;;5036092;28;20660;-47
2023/03/29 11:14:28;;;;;;;5.30;2.57;;;18.50;54.60;;;;;;5046734;28;20221;-46
2023/03/29 11:17:22;;;;;;;6.67;2.23;;;18.50;54.40;;;;;;5046689;28;20521;-46
2023/03/29 11:20:35;;;;;;;5.90;2.40;;;18.50;54.50;;;;;;5048441;28;20186;-46
2023/03/29 11:23:21;;;;;;;5.00;2.00;;;18.50;54.50;;;;;;4988064;28;20218;-46
2023/03/29 11:26:28;;;;;;;2.37;1.67;;;18.50;54.30;;;;;;5042151;28;20628;-46
2023/03/29 11:29:28;;;;;;;3.27;2.13;;;18.70;54.80;;;;;;5040825;28;20214;-46
2023/03/29 11:32:16;;;;;;;4.77;1.57;;;19.00;54.90;;;;;;5040392;28;20201;-47
2023/03/29 11:35:18;;;;;;;4.73;1.50;;;19.20;54.30;;;;;;5046624;28;20617;-48
2023/03/29 11:38:27;;;;;;;3.93;1.57;;;19.50;53.90;;;;;;5044900;28;20226;-46
2023/03/29 11:41:33;;;;;;;5.70;1.50;;;19.80;53.70;;;;;;5048109;28;20191;-46
2023/03/29 11:44:27;;;;;;;2.83;1.50;;;20.10;53.20;;;;;;5028316;28;20187;-47
2023/03/29 11:47:17;;;;;;;4.27;1.53;;;20.30;52.60;;;;;;5043837;28;20206;-46
2023/03/29 11:50:08;;;;;;;2.37;1.07;;;20.60;52.30;;;;;;5048112;28;20619;-46
2023/03/29 11:53:02;;;;;;;2.60;1.40;;;20.80;52.30;;;;;;5041635;28;20191;-48
2023/03/29 11:55:38;;;;;;;2.00;1.10;;;21.00;51.70;;;;;;5045058;28;20245;-48
2023/03/29 11:58:39;;;;;;;1.53;1.03;;;21.20;51.50;;;;;;5042075;28;20234;-47
2023/03/29 12:01:31;;;;;;;1.53;1.10;;;21.40;51.30;;;;;;5047568;28;20206;-47
2023/03/29 12:04:06;;;;;;;3.40;1.37;;;21.60;50.90;;;;;;5027829;28;20202;-47
2023/03/29 12:07:15;;;;;;;1.53;1.00;;;21.80;50.50;;;;;;5031551;28;20231;-48
2023/03/29 12:10:04;;;;;;;2.10;1.13;;;22.10;50.20;;;;;;5006639;28;20249;-47
2023/03/29 12:13:00;;;;;;;2.27;1.20;;;22.20;50.10;;;;;;5023449;28;20254;-47
2023/03/29 12:15:45;;;;;;;1.27;1.00;;;22.30;50.00;;;;;;5044733;28;20207;-46
2023/03/29 12:18:29;;;;;;;2.27;1.20;;;22.50;50.10;;;;;;5029003;28;20623;-46
2023/03/29 12:21:09;;;;;;;1.33;1.13;;;22.60;49.50;;;;;;5038567;28;20624;-47
2023/03/29 12:24:01;;;;;;;2.10;1.20;;;22.60;48.50;;;;;;5032383;28;20196;-48
2023/03/29 12:27:08;;;;;;;2.20;1.33;;;22.50;48.70;;;;;;5046870;28;20206;-47
2023/03/29 12:30:39;;;;;;;3.57;1.00;;;22.40;48.70;;;;;;5043791;28;20209;-47
2023/03/29 12:34:01;;;;;;;1.30;1.20;;;22.20;49.10;;;;;;5029258;28;20642;-46
2023/03/29 12:36:59;;;;;;;2.07;1.40;;;22.10;49.10;;;;;;4996910;28;20211;-48
2023/03/29 12:39:35;;;;;;;4.60;1.60;;;22.10;49.20;;;;;;5041412;28;20194;-48
2023/03/29 12:42:23;;;;;;;2.80;1.57;;;22.00;49.60;;;;;;5037610;28;20381;-47
2023/03/29 12:45:00;;;;;;;1.20;1.03;;;21.90;49.50;;;;;;5029300;28;20864;-47
2023/03/29 12:47:44;;;;;;;3.60;1.20;;;21.90;50.00;;;;;;5030458;28;20301;-47
2023/03/29 12:50:23;;;;;;;1.50;1.17;;;21.80;49.80;;;;;;5011400;28;20537;-46
2023/03/29 12:53:16;;;;;;;1.70;1.20;;;21.80;49.70;;;;;;5024135;28;20204;-47
2023/03/29 12:55:53;;;;;;;2.27;1.30;;;21.80;49.70;;;;;;5037531;28;20226;-46
2023/03/29 12:58:44;;;;;;;1.73;1.30;;;21.70;50.40;;;;;;5033072;28;20279;-47
2023/03/29 13:01:36;;;;;;;1.83;1.27;;;21.70;50.00;;;;;;5046273;28;20244;-47
2023/03/29 13:04:35;;;;;;;1.83;1.20;;;21.70;50.10;;;;;;5039943;28;20209;-47
2023/03/29 13:07:05;;;;;;;3.00;1.13;;;21.60;50.30;;;;;;5043704;28;20239;-48
2023/03/29 13:09:56;;;;;;;2.23;1.50;;;21.60;50.30;;;;;;5046289;28;20190;-48
2023/03/29 13:12:46;;;;;;;1.60;1.13;;;21.60;50.10;;;;;;5037151;28;20332;-47
2023/03/29 13:15:25;;;;;;;2.10;1.40;;;21.60;50.40;;;;;;5026894;28;20562;-47
2023/03/29 13:18:32;;;;;;;1.83;1.23;;;21.60;50.40;;;;;;5006139;28;20206;-47
2023/03/29 13:21:14;;;;;;;2.23;1.20;;;21.50;50.50;;;;;;5032423;28;20712;-47
2023/03/29 13:24:20;;;;;;;1.50;1.00;;;21.50;50.80;;;;;;5036136;28;20210;-46
2023/03/29 13:27:28;;;;;;;3.90;1.40;;;21.50;49.80;;;;;;5044220;28;20193;-47
2023/03/29 13:30:32;;;;;;;1.67;1.03;;;21.10;50.30;;;;;;5028243;28;20550;-47
2023/03/29 13:33:32;;;;;;;2.73;1.13;;;21.00;51.30;;;;;;5033562;28;20206;-47
2023/03/29 13:36:07;;;;;;;2.23;1.40;;;21.10;51.40;;;;;;5038032;28;20253;-47
2023/03/29 13:38:53;;;;;;;2.13;1.13;;;21.20;52.00;;;;;;5044643;28;20214;-48
2023/03/29 13:41:46;;;;;;;1.67;1.10;;;21.20;51.50;;;;;;5009826;28;20222;-46
2023/03/29 13:44:37;;;;;;;2.27;1.00;;;21.20;51.40;;;;;;5043441;28;20198;-46
2023/03/29 13:47:17;;;;;;;1.40;1.10;;;21.20;51.30;;;;;;5020970;28;20205;-47
2023/03/29 13:50:05;;;;;;;1.60;1.50;;;21.20;51.20;;;;;;5043597;28;20206;-47